• Join FlightAware (Why Join?)
  • Login
  • US Flag 
09:57PM EDT


 

Airport Tracker/Info


-or-


 

Live Flight TrackerFlight Track Log ✈ RPA3253 ✈ 21-Jul-2013 ✈ KALB - KCLT

Flight Track Log - Related Links

Times and Time Zones

All times are in EDT time to prevent confusion due to time zone crossing. See the RPA3253 flight status page for this flight to view local times or setup timezone preferences in your user account.

Time Position Orientation Groundspeed Altitude Reporting Facility
EDT Latitude Longitude Course Direction KTS MPH feet Rate Location/Type
07:53PM 42.7672 -73.8061 180° South 167 192 1,100  Level Boston Center
07:53PM 42.7903 -73.8150 344° North 169 194 1,700 1,440 Climbing Boston Center
07:54PM 42.8353 -73.8728 317° Northwest 232 267 3,300 2,040 Climbing Boston Center
07:55PM 42.5312 -74.0387 171° South  Level Estimated
07:56PM 42.4585 -74.1172 180° South  Level Estimated
07:56PM 42.9050 -73.9594 318° Northwest 285 328 6,500  Level Boston Center
07:57PM 42.3857 -74.1955 170° South  Level Estimated
07:57PM 42.9308 -74.0450 292° West 259 298 9,400  Level Boston Center
07:58PM 42.3129 -74.2737 180° South  Level Estimated
07:58PM 42.9403 -74.1275 279° West 259 298 10,600  Level Boston Center
07:59PM 42.9031 -74.2372 245° Southwest 281 323 12,600 2,040 Climbing Boston Center
08:00PM 42.8181 -74.2092 166° South 263 303 14,700 1,800 Climbing Boston Center
08:01PM 42.7272 -74.1528 155° Southeast 316 364 16,300 1,500 Climbing Boston Center
08:02PM 42.6444 -74.1056 157° South 363 418 17,700 1,260 Climbing Boston Center
08:03PM 42.5494 -74.0494 156° South 371 427 18,900 1,200 Climbing Boston Center
08:04PM 42.4522 -73.9961 158° South 376 433 20,200 1,140 Climbing Boston Center
08:05PM 42.3550 -73.9375 156° South 381 438 21,200 900 Climbing Boston Center
08:06PM 42.2536 -73.8819 158° South 386 444 22,100 1,020 Climbing Boston Center
08:07PM 42.1503 -73.8206 156° South 399 459 23,300 1,080 Climbing Boston Center
08:08PM 42.0425 -73.7597 157° South 410 472 24,300 900 Climbing Boston Center
08:09PM 41.9350 -73.6986 157° South 410 472 25,100 900 Climbing Boston Center
08:10PM 41.8272 -73.6353 156° South 415 478 26,200 1,200 Climbing Boston Center
08:11PM 41.7150 -73.5997 167° South 415 478 27,500 1,200 Climbing Boston Center
08:12PM 41.6025 -73.5978 179° South 407 468 28,700 960 Climbing Boston Center
08:14PM 41.3550 -73.5847 178° South 406 467 30,600 900 Climbing New York Center
08:15PM 41.2519 -73.6358 200° South 399 459 31,700 900 Climbing New York Center
08:16PM 41.1867 -73.7433 231° Southwest 371 427 32,500 840 Climbing New York Center
08:17PM 41.1236 -73.8478 231° Southwest 365 420 33,400 840 Climbing New York Center
08:18PM 41.0603 -73.9578 233° Southwest 371 427 34,200 720 Climbing New York Center
08:19PM 40.9969 -74.0647 232° Southwest 376 433 34,900 660 Climbing New York Center
08:20PM 40.9336 -74.1714 232° Southwest 376 433 35,600 420 Climbing New York Center
08:21PM 40.8681 -74.2697 229° Southwest 371 427 35,800 180 Climbing New York Center
08:22PM 40.8044 -74.3789 232° Southwest 371 427 36,000 60 Climbing New York Center
08:23PM 40.7386 -74.4875 231° Southwest 376 433 36,000  Level New York Center
08:24PM 40.6725 -74.5961 231° Southwest 381 438 36,000  Level New York Center
08:25PM 40.6089 -74.6992 231° Southwest 381 438 36,000  Level New York Center
08:26PM 40.5428 -74.7992 229° Southwest 376 433 36,000  Level New York Center
08:27PM 40.4747 -74.8989 228° Southwest 376 433 36,000  Level New York Center
08:28PM 40.4047 -74.9956 226° Southwest 370 426 36,000  Level New York Center
08:29PM 40.3364 -75.0950 228° Southwest 375 432 36,000  Level New York Center
08:30PM 40.2661 -75.1967 228° Southwest 375 432 36,000  Level New York Center
08:31PM 40.1978 -75.2928 227° Southwest 375 432 36,000  Level New York Center
08:32PM 40.1253 -75.3911 226° Southwest 375 432 36,000  Level New York Center
08:33PM 40.0567 -75.4869 227° Southwest 375 432 36,000  Level New York Center
08:34PM 39.9861 -75.5825 226° Southwest 375 432 36,000  Level New York Center
08:36PM 39.8383 -75.8022 229° Southwest 370 426 36,000  Level Washington Center
08:37PM 39.7717 -75.9072 230° Southwest 370 426 36,000  Level Washington Center
08:38PM 39.7067 -76.0122 231° Southwest 370 426 36,000  Level Washington Center
08:39PM 39.6417 -76.1144 230° Southwest 376 433 36,000  Level Washington Center
08:40PM 39.5744 -76.2161 229° Southwest 376 433 36,000  Level Washington Center
08:41PM 39.5072 -76.3231 231° Southwest 376 433 36,000  Level Washington Center
08:42PM 39.4378 -76.4272 229° Southwest 376 433 36,000  Level Washington Center
08:43PM 39.3725 -76.5286 230° Southwest 376 433 36,000  Level Washington Center
08:44PM 39.3050 -76.6350 231° Southwest 376 433 36,000  Level Washington Center
08:45PM 39.2414 -76.7358 231° Southwest 376 433 36,000  Level Washington Center
08:46PM 39.1736 -76.8419 231° Southwest 376 433 36,000  Level Washington Center
08:47PM 39.1058 -76.9450 230° Southwest 376 433 36,000  Level Washington Center
08:48PM 39.0381 -77.0453 229° Southwest 376 433 36,000  Level Washington Center
08:49PM 38.9556 -77.1372 221° Southwest 376 433 36,000  Level Washington Center
08:50PM 38.8731 -77.2233 219° Southwest 382 440 36,000  Level Washington Center
08:51PM 38.7928 -77.3094 220° Southwest 389 448 36,000  Level Washington Center
08:52PM 38.7100 -77.4033 222° Southwest 389 448 36,000  Level Washington Center
08:53PM 38.6275 -77.4917 220° Southwest 384 442 36,000  Level Washington Center
08:54PM 38.5447 -77.5800 220° Southwest 384 442 36,000  Level Washington Center
08:55PM 38.4617 -77.6731 221° Southwest 389 448 36,000  Level Washington Center
08:56PM 38.3747 -77.7661 220° Southwest 394 453 36,000  Level Washington Center
08:57PM 38.2894 -77.8589 221° Southwest 399 459 36,000  Level Washington Center
08:58PM 38.2022 -77.9514 220° Southwest 404 465 36,000  Level Washington Center
08:59PM 38.1189 -78.0436 221° Southwest 404 465 36,000  Level Washington Center
09:00PM 38.0336 -78.1331 220° Southwest 409 471 36,000  Level Washington Center
09:01PM 37.9606 -78.2333 227° Southwest 395 455 36,000  Level Washington Center
09:02PM 37.8958 -78.3286 229° Southwest 403 464 36,000  Level Washington Center
09:03PM 37.8206 -78.4361 228° Southwest 403 464 36,000  Level Washington Center
09:04PM 37.7469 -78.5411 228° Southwest 403 464 36,000  Level Washington Center
09:05PM 37.6733 -78.6458 228° Southwest 403 464 36,000 -60 Level Washington Center
09:06PM 37.5911 -78.7606 228° Southwest 403 464 35,900 -600 Descending Washington Center
09:07PM 37.5153 -78.8700 229° Southwest 403 464 34,900 -1,020 Descending Washington Center
09:08PM 37.4394 -78.9764 228° Southwest 403 464 33,900 -1,020 Descending Washington Center
09:09PM 37.3633 -79.0803 227° Southwest 403 464 32,900 -960 Descending Washington Center
09:10PM 37.2872 -79.1892 229° Southwest 403 464 32,000 -480 Descending Washington Center
09:11PM 37.2072 -79.2739 220° Southwest 410 472 32,000  Level Washington Center
09:12PM 37.1089 -79.3553 213° Southwest 415 478 32,000  Level Washington Center
09:13PM 37.0103 -79.4389 214° Southwest 428 493 32,000  Level Washington Center
09:14PM 36.9094 -79.5194 213° Southwest 435 501 32,000  Level Washington Center
09:15PM 36.8022 -79.6100 214° Southwest 435 501 32,000  Level Washington Center
09:16PM 36.7036 -79.6906 213° Southwest 435 501 32,000  Level Washington Center
09:17PM 36.6028 -79.7706 213° Southwest 430 495 32,000 -1,620 Level Washington Center
09:20PM 36.2969 -80.0200 213° Southwest 412 474 25,500 -2,100 Descending Atlanta Center
09:21PM 36.2078 -80.0967 215° Southwest 391 450 23,400 -2,100 Descending Atlanta Center
09:22PM 36.1286 -80.1647 215° Southwest 391 450 21,400 -1,980 Descending Atlanta Center
09:23PM 36.0411 -80.2381 214° Southwest 391 450 19,500 -1,920 Descending Atlanta Center
09:24PM 35.9600 -80.3086 215° Southwest 386 444 17,600 -2,040 Descending Atlanta Center
09:25PM 35.8867 -80.3736 216° Southwest 349 402 15,900 -1,980 Descending Atlanta Center
09:26PM 35.8114 -80.4383 215° Southwest 335 386 14,100 -1,800 Descending Atlanta Center
09:27PM 35.7342 -80.5033 214° Southwest 303 349 12,300 -1,680 Descending Atlanta Center
09:28PM 35.6539 -80.5400 200° South 305 351 10,700 -1,500 Descending Atlanta Center
09:29PM 35.5669 -80.5667 194° South 298 343 9,100 -1,200 Descending Atlanta Center
09:30PM 35.4947 -80.5925 196° South 286 329 8,200 -1,140 Descending Atlanta Center
09:31PM 35.4353 -80.6358 211° Southwest 264 304 6,900 -1,320 Descending Atlanta Center
09:32PM 35.3911 -80.6989 229° Southwest 250 288 5,600 -1,200 Descending Atlanta Center
09:33PM 35.3531 -80.7514 228° Southwest 225 259 4,500 -1,140 Descending Atlanta Center
09:34PM 35.3186 -80.7986 228° Southwest 197 227 3,500 -1,020 Descending Atlanta Center
09:35PM 35.2886 -80.8431 230° Southwest 179 206 2,700 -900 Descending Atlanta Center